Time;durP1;ratioP1;P1;durP2;ratioP2;P2;SDS_P1;SDS_P2;PMS_P1;PMS_P2;Temp;Humidity;BMP_temperature;BMP_pressure;BME280_temperature;BME280_humidity;BME280_pressure;Samples;Min_cycle;Max_cycle;Signal;HPM_P1;HPM_P2
2022/01/09 00:01:34;;;;;;;8.75;3.97;;;1.50;99.90;;;;;;4998657;28;20066;-58
2022/01/09 00:03:59;;;;;;;4.80;3.83;;;1.50;99.90;;;;;;4999342;28;20128;-57
2022/01/09 00:06:25;;;;;;;4.57;3.80;;;1.50;99.90;;;;;;4998141;28;20037;-56
2022/01/09 00:08:50;;;;;;;8.07;4.63;;;1.50;99.90;;;;;;4980914;28;20033;-57
2022/01/09 00:11:18;;;;;;;6.53;3.50;;;1.50;99.90;;;;;;4982474;28;20037;-58
2022/01/09 00:13:45;;;;;;;3.95;3.28;;;1.50;99.90;;;;;;4999143;28;20038;-57
2022/01/09 00:16:10;;;;;;;6.22;3.92;;;1.50;99.90;;;;;;4999261;28;20467;-55
2022/01/09 00:18:36;;;;;;;6.40;3.78;;;1.50;99.90;;;;;;4998673;28;20058;-57
2022/01/09 00:21:05;;;;;;;6.43;3.88;;;1.50;99.90;;;;;;4999391;28;20117;-56
2022/01/09 00:23:32;;;;;;;5.97;3.58;;;1.50;99.90;;;;;;4998443;28;20026;-57
2022/01/09 00:25:58;;;;;;;6.00;3.42;;;1.50;99.90;;;;;;4981003;28;20034;-58
2022/01/09 00:28:24;;;;;;;7.47;3.42;;;1.50;99.90;;;;;;4998855;28;20088;-58
2022/01/09 00:30:49;;;;;;;3.97;3.55;;;1.50;99.90;;;;;;4999015;28;20033;-57
2022/01/09 00:33:15;;;;;;;6.25;3.70;;;1.50;99.90;;;;;;4998603;28;20034;-56
2022/01/09 00:35:40;;;;;;;5.28;3.28;;;1.60;99.90;;;;;;4997576;28;20121;-55
2022/01/09 00:38:06;;;;;;;4.75;3.40;;;1.60;99.90;;;;;;4999060;28;20032;-58
2022/01/09 00:40:32;;;;;;;9.20;3.67;;;1.60;99.90;;;;;;4997489;28;20034;-58
2022/01/09 00:42:57;;;;;;;6.03;3.45;;;1.60;99.90;;;;;;4997657;28;20041;-56
2022/01/09 00:45:23;;;;;;;6.47;3.65;;;1.60;99.90;;;;;;4998349;28;20040;-57
2022/01/09 00:47:48;;;;;;;7.35;3.58;;;1.60;99.90;;;;;;4996546;28;20038;-58
2022/01/09 00:50:15;;;;;;;6.47;3.63;;;1.60;99.90;;;;;;4998688;28;20064;-56
2022/01/09 00:52:41;;;;;;;4.15;3.72;;;1.60;99.90;;;;;;4997814;28;20543;-58
2022/01/09 00:55:08;;;;;;;6.03;3.63;;;1.60;99.90;;;;;;4998831;28;20105;-58
2022/01/09 00:57:33;;;;;;;6.90;3.35;;;1.60;99.90;;;;;;4999425;28;20472;-58
2022/01/09 00:59:59;;;;;;;4.55;3.60;;;1.60;99.90;;;;;;4999320;28;20034;-58
2022/01/09 01:02:25;;;;;;;5.18;3.90;;;1.60;99.90;;;;;;4997614;28;20025;-58
2022/01/09 01:04:51;;;;;;;7.22;3.13;;;1.60;99.90;;;;;;4998126;28;20034;-58
2022/01/09 01:07:19;;;;;;;4.13;3.05;;;1.60;99.90;;;;;;4997336;28;20026;-55
2022/01/09 01:09:45;;;;;;;8.23;3.40;;;1.60;99.90;;;;;;4979037;28;20033;-58
2022/01/09 01:12:11;;;;;;;4.25;3.00;;;1.70;99.90;;;;;;4980545;28;20469;-58
2022/01/09 01:14:37;;;;;;;4.15;2.80;;;1.70;99.90;;;;;;4994829;28;20088;-58
2022/01/09 01:17:03;;;;;;;5.13;3.00;;;1.70;99.90;;;;;;4997753;28;20462;-57
2022/01/09 01:19:28;;;;;;;4.07;3.08;;;1.70;99.90;;;;;;4996905;28;20026;-56
2022/01/09 01:21:55;;;;;;;5.32;2.83;;;1.80;99.90;;;;;;4998076;28;20033;-57
2022/01/09 01:24:21;;;;;;;3.72;2.72;;;1.80;99.90;;;;;;4980775;28;20026;-56
2022/01/09 01:26:47;;;;;;;3.58;2.70;;;1.80;99.90;;;;;;4998294;28;20038;-57
2022/01/09 01:29:13;;;;;;;3.53;3.10;;;1.80;99.90;;;;;;4997170;28;20034;-58
2022/01/09 01:31:38;;;;;;;4.35;3.00;;;1.80;99.90;;;;;;4997670;28;20429;-58
2022/01/09 01:34:04;;;;;;;4.30;3.22;;;1.80;99.90;;;;;;4997184;28;20041;-60
2022/01/09 01:36:29;;;;;;;4.43;3.00;;;1.80;99.90;;;;;;4997227;28;20031;-56
2022/01/09 01:38:55;;;;;;;4.68;3.20;;;1.70;99.90;;;;;;4997297;28;20432;-56
2022/01/09 01:41:21;;;;;;;5.32;3.40;;;1.80;99.90;;;;;;4979249;28;20034;-57
2022/01/09 01:43:46;;;;;;;6.55;3.20;;;1.80;99.90;;;;;;4980238;28;20400;-57
2022/01/09 01:46:12;;;;;;;4.35;3.25;;;1.80;99.90;;;;;;4998045;28;20030;-58
2022/01/09 01:48:37;;;;;;;4.88;3.28;;;1.70;99.90;;;;;;4997946;28;20030;-57
2022/01/09 01:51:04;;;;;;;4.32;3.33;;;1.80;99.90;;;;;;4998667;28;20041;-57
2022/01/09 01:53:30;;;;;;;4.47;3.33;;;1.80;99.90;;;;;;4996312;28;20039;-56
2022/01/09 01:55:57;;;;;;;3.80;3.35;;;1.80;99.90;;;;;;4998461;28;20026;-58
2022/01/09 01:58:24;;;;;;;3.42;3.13;;;1.80;99.90;;;;;;4998792;28;20025;-57
2022/01/09 02:00:50;;;;;;;4.05;3.22;;;1.80;99.90;;;;;;4998488;28;21950;-58
2022/01/09 02:03:16;;;;;;;4.97;3.10;;;1.80;99.90;;;;;;4998464;28;20034;-57
2022/01/09 02:05:45;;;;;;;4.85;3.17;;;1.80;99.90;;;;;;5000837;28;20442;-55
2022/01/09 02:08:12;;;;;;;4.82;2.67;;;1.80;99.90;;;;;;4999907;28;20050;-55
2022/01/09 02:10:44;;;;;;;4.03;2.92;;;1.80;99.90;;;;;;5001540;28;20038;-57
2022/01/09 02:13:10;;;;;;;5.00;2.97;;;1.80;99.90;;;;;;5000811;28;20047;-54
2022/01/09 02:15:45;;;;;;;5.05;3.10;;;1.80;99.90;;;;;;4999594;28;20038;-56
2022/01/09 02:18:20;;;;;;;5.05;3.10;;;1.80;99.90;;;;;;5000463;28;20042;-58
2022/01/09 02:20:47;;;;;;;4.63;3.33;;;1.80;99.90;;;;;;4999758;28;20042;-56
2022/01/09 02:23:15;;;;;;;3.55;2.70;;;1.80;99.90;;;;;;5000745;28;20027;-57
2022/01/09 02:25:42;;;;;;;4.97;3.05;;;1.90;99.90;;;;;;4980458;28;20265;-57
2022/01/09 02:28:09;;;;;;;3.60;2.90;;;1.90;99.90;;;;;;5000943;28;20026;-57
2022/01/09 02:30:35;;;;;;;5.80;2.92;;;1.90;99.90;;;;;;5000177;28;20042;-56
2022/01/09 02:33:04;;;;;;;7.72;3.20;;;1.90;99.90;;;;;;4999116;28;20165;-56
2022/01/09 02:35:30;;;;;;;5.13;3.17;;;1.90;99.90;;;;;;5000008;28;20037;-56
2022/01/09 02:37:56;;;;;;;5.10;3.30;;;1.90;99.90;;;;;;5001153;28;20026;-57
2022/01/09 02:40:23;;;;;;;4.22;3.22;;;1.90;99.90;;;;;;5001589;28;20024;-55
2022/01/09 02:45:21;;;;;;;4.15;2.85;;;1.80;99.90;;;;;;5016311;28;20042;-46
2022/01/09 02:47:48;;;;;;;4.72;3.17;;;1.80;99.90;;;;;;5020387;28;20018;-47
2022/01/09 02:52:53;;;;;;;5.65;2.97;;;1.80;99.90;;;;;;5019601;28;20026;-47
2022/01/09 02:55:20;;;;;;;6.75;3.28;;;1.80;99.90;;;;;;5020527;28;20025;-47
2022/01/09 02:57:56;;;;;;;4.55;2.90;;;1.80;99.90;;;;;;5020610;28;20484;-47
2022/01/09 03:00:33;;;;;;;5.50;3.58;;;1.70;99.90;;;;;;5019788;28;20069;-46
2022/01/09 03:02:59;;;;;;;;;;;1.70;99.90;;;;;;5020331;28;20056;-46
2022/01/09 03:05:26;;;;;;;4.00;2.93;;;1.70;99.90;;;;;;5020241;28;20370;-46
2022/01/09 03:07:52;;;;;;;3.03;2.72;;;1.70;99.90;;;;;;5019260;28;20033;-48
2022/01/09 03:10:20;;;;;;;5.10;3.40;;;1.70;99.90;;;;;;5018511;28;20045;-49
2022/01/09 03:12:47;;;;;;;7.53;3.50;;;1.70;99.90;;;;;;5019603;28;20100;-50
2022/01/09 03:15:13;;;;;;;5.72;3.50;;;1.70;99.90;;;;;;5018366;28;20200;-47
2022/01/09 03:17:40;;;;;;;5.30;3.78;;;1.70;99.90;;;;;;5018638;28;20538;-46
2022/01/09 03:20:12;;;;;;;5.18;3.72;;;1.70;99.90;;;;;;5019254;28;20026;-48
2022/01/09 03:22:37;;;;;;;4.55;3.53;;;1.70;99.90;;;;;;5019188;28;20037;-47
2022/01/09 03:25:04;;;;;;;9.73;3.85;;;1.70;99.90;;;;;;5019135;28;20030;-48
2022/01/09 03:27:30;;;;;;;7.03;4.03;;;1.70;99.90;;;;;;5019834;28;20061;-48
2022/01/09 03:29:55;;;;;;;7.03;3.60;;;1.60;99.90;;;;;;5019253;28;20061;-46
2022/01/09 03:32:21;;;;;;;7.20;3.33;;;1.60;99.90;;;;;;5020461;28;20497;-47
2022/01/09 03:34:47;;;;;;;5.80;3.60;;;1.60;99.90;;;;;;5019819;28;20057;-51
2022/01/09 03:37:12;;;;;;;8.18;3.45;;;1.60;99.90;;;;;;5019964;28;20037;-47
2022/01/09 03:39:38;;;;;;;4.25;3.75;;;1.60;99.90;;;;;;5019542;28;20022;-51
2022/01/09 03:42:04;;;;;;;3.55;2.90;;;1.60;99.90;;;;;;5019613;28;20502;-47
2022/01/09 03:44:30;;;;;;;6.68;4.00;;;1.60;99.90;;;;;;5018265;28;20041;-47
2022/01/09 03:46:56;;;;;;;7.15;3.42;;;1.60;99.90;;;;;;5020224;28;20037;-47
2022/01/09 03:49:22;;;;;;;6.57;3.28;;;1.60;99.90;;;;;;5018767;28;20034;-48
2022/01/09 03:51:51;;;;;;;3.40;3.10;;;1.60;99.90;;;;;;5019080;28;20025;-48
2022/01/09 03:54:19;;;;;;;6.22;3.72;;;1.60;99.90;;;;;;5017900;28;20035;-50
2022/01/09 03:56:45;;;;;;;6.95;3.28;;;1.60;99.90;;;;;;5019324;28;20022;-47
2022/01/09 03:59:10;;;;;;;4.60;3.42;;;1.60;99.90;;;;;;5019238;28;20025;-46
2022/01/09 04:01:36;;;;;;;4.70;3.22;;;1.60;99.90;;;;;;5019289;28;20021;-51
2022/01/09 04:04:01;;;;;;;4.97;3.80;;;1.60;99.90;;;;;;5018714;28;20497;-51
2022/01/09 04:06:27;;;;;;;4.70;3.35;;;1.60;99.90;;;;;;5016975;28;20467;-52
2022/01/09 04:08:53;;;;;;;3.40;3.10;;;1.60;99.90;;;;;;5018917;28;20022;-53
2022/01/09 04:11:26;;;;;;;5.60;3.10;;;1.70;99.90;;;;;;5018482;28;20107;-51
2022/01/09 04:13:52;;;;;;;5.10;3.40;;;1.70;99.90;;;;;;5018048;28;20032;-50
2022/01/09 04:16:18;;;;;;;5.28;2.90;;;1.70;99.90;;;;;;5018504;28;20017;-48
2022/01/09 04:18:44;;;;;;;3.97;3.20;;;1.60;99.90;;;;;;5017731;28;20103;-48
2022/01/09 04:21:09;;;;;;;5.38;3.30;;;1.60;99.90;;;;;;5018412;28;20025;-49
2022/01/09 04:23:35;;;;;;;7.63;3.65;;;1.60;99.90;;;;;;5019204;28;20040;-48
2022/01/09 04:26:01;;;;;;;5.22;3.47;;;1.60;99.90;;;;;;5019625;28;20079;-46
2022/01/09 04:28:26;;;;;;;6.32;3.45;;;1.60;99.90;;;;;;5018337;28;20049;-51
2022/01/09 04:30:52;;;;;;;7.15;4.05;;;1.60;99.90;;;;;;5017443;28;20044;-48
2022/01/09 04:33:18;;;;;;;4.80;3.60;;;1.60;99.90;;;;;;5017813;28;20052;-48
2022/01/09 04:35:44;;;;;;;5.75;3.83;;;1.60;99.90;;;;;;5017673;28;20026;-47
2022/01/09 04:38:10;;;;;;;3.72;3.08;;;1.60;99.90;;;;;;5017765;28;20018;-47
2022/01/09 04:40:36;;;;;;;5.80;3.50;;;1.60;99.90;;;;;;5017809;28;20095;-52
2022/01/09 04:43:05;;;;;;;6.28;3.95;;;1.60;99.90;;;;;;5017166;28;20650;-52
2022/01/09 04:45:31;;;;;;;6.10;4.00;;;1.60;99.90;;;;;;5018302;28;20046;-46
2022/01/09 04:48:01;;;;;;;6.07;3.47;;;1.60;99.90;;;;;;5017021;28;20490;-55
2022/01/09 04:50:30;;;;;;;4.70;3.72;;;1.50;99.90;;;;;;5018301;28;20042;-49
2022/01/09 04:53:01;;;;;;;4.20;3.60;;;1.50;99.90;;;;;;5017981;28;20038;-48
2022/01/09 04:55:28;;;;;;;6.90;3.88;;;1.50;99.90;;;;;;5017974;28;20026;-49
2022/01/09 04:57:55;;;;;;;4.57;3.40;;;1.50;99.90;;;;;;5000537;28;20033;-48
2022/01/09 05:00:21;;;;;;;3.85;2.97;;;1.50;99.90;;;;;;5017724;28;20025;-47
2022/01/09 05:02:47;;;;;;;5.95;3.63;;;1.50;99.90;;;;;;5017267;28;20117;-51
2022/01/09 05:05:13;;;;;;;6.13;3.83;;;1.50;99.90;;;;;;5017783;28;20587;-47
2022/01/09 05:07:39;;;;;;;7.05;3.97;;;1.50;99.90;;;;;;5016622;28;20357;-49
2022/01/09 05:10:07;;;;;;;5.45;3.63;;;1.50;99.90;;;;;;5019222;28;20093;-46
2022/01/09 05:12:33;;;;;;;4.60;3.63;;;1.50;99.90;;;;;;5017946;28;20030;-47
2022/01/09 05:14:59;;;;;;;4.30;3.53;;;1.50;99.90;;;;;;5017973;28;20087;-49
2022/01/09 05:17:25;;;;;;;5.05;3.40;;;1.50;99.90;;;;;;5017062;28;20037;-46
2022/01/09 05:19:52;;;;;;;6.95;3.25;;;1.50;99.90;;;;;;5017505;28;20033;-49
2022/01/09 05:22:18;;;;;;;3.28;2.90;;;1.50;99.90;;;;;;5018526;28;20049;-47
2022/01/09 05:24:44;;;;;;;7.47;4.10;;;1.40;99.90;;;;;;5017590;28;20025;-50
2022/01/09 05:27:10;;;;;;;4.20;3.25;;;1.50;99.90;;;;;;5017354;28;20029;-52
2022/01/09 05:29:36;;;;;;;6.50;3.55;;;1.50;99.90;;;;;;5016401;28;20064;-49
2022/01/09 05:32:01;;;;;;;4.47;3.63;;;1.40;99.90;;;;;;5018109;28;20034;-48
2022/01/09 05:34:27;;;;;;;5.22;3.92;;;1.40;99.90;;;;;;5020922;28;20025;-46
2022/01/09 05:36:53;;;;;;;6.13;3.63;;;1.40;99.90;;;;;;5021842;28;20076;-48
2022/01/09 05:39:18;;;;;;;4.60;3.60;;;1.40;99.90;;;;;;5020827;28;20105;-50
2022/01/09 05:41:45;;;;;;;5.18;3.33;;;1.40;99.90;;;;;;5021869;28;20057;-48
2022/01/09 05:44:11;;;;;;;6.18;3.47;;;1.40;99.90;;;;;;5021406;28;20070;-50
2022/01/09 05:46:37;;;;;;;3.97;3.55;;;1.40;99.90;;;;;;5003915;28;20065;-49
2022/01/09 05:49:03;;;;;;;6.80;4.00;;;1.40;99.90;;;;;;5004445;28;20042;-50
2022/01/09 05:51:28;;;;;;;5.32;4.00;;;1.40;99.90;;;;;;5022439;28;20118;-46
2022/01/09 05:53:54;;;;;;;6.60;4.22;;;1.40;99.90;;;;;;5021197;28;20056;-46
2022/01/09 05:56:19;;;;;;;5.22;4.47;;;1.30;99.90;;;;;;5020926;28;20026;-48
2022/01/09 05:58:45;;;;;;;5.20;4.15;;;1.30;99.90;;;;;;5020502;28;20109;-46
2022/01/09 06:01:10;;;;;;;4.90;4.18;;;1.30;99.90;;;;;;5020883;28;20327;-46
2022/01/09 06:03:36;;;;;;;5.32;4.30;;;1.30;99.90;;;;;;5021162;28;20026;-47
2022/01/09 06:06:02;;;;;;;9.18;4.85;;;1.20;99.90;;;;;;5021224;28;20084;-48
2022/01/09 06:08:28;;;;;;;5.65;4.30;;;1.20;99.90;;;;;;5021656;28;20026;-47
2022/01/09 06:10:53;;;;;;;5.90;4.53;;;1.20;99.90;;;;;;5021415;28;20554;-47
2022/01/09 06:13:19;;;;;;;4.95;4.45;;;1.10;99.90;;;;;;5020881;28;20105;-46
2022/01/09 06:15:44;;;;;;;6.03;4.80;;;1.10;99.90;;;;;;5021148;28;20055;-49
2022/01/09 06:18:12;;;;;;;4.72;4.20;;;1.10;99.90;;;;;;5021062;28;20029;-54
2022/01/09 06:20:38;;;;;;;7.03;5.00;;;1.10;99.90;;;;;;5020576;28;20112;-49
2022/01/09 06:23:03;;;;;;;7.32;4.45;;;1.10;99.90;;;;;;5021152;28;20116;-49
2022/01/09 06:25:29;;;;;;;6.75;5.10;;;1.00;99.90;;;;;;5019585;28;20429;-49
2022/01/09 06:27:55;;;;;;;7.00;4.63;;;1.00;99.90;;;;;;5020938;28;20033;-50
2022/01/09 06:30:20;;;;;;;5.50;4.95;;;1.00;99.90;;;;;;5019383;28;20037;-46
2022/01/09 06:32:46;;;;;;;6.47;5.03;;;1.00;99.90;;;;;;5020818;28;20021;-49
2022/01/09 06:35:12;;;;;;;8.10;4.78;;;1.00;99.90;;;;;;5019998;28;20391;-49
2022/01/09 06:37:37;;;;;;;5.90;5.30;;;1.00;99.90;;;;;;5020225;28;20026;-50
2022/01/09 06:40:04;;;;;;;7.70;5.20;;;1.00;99.90;;;;;;5021015;28;20029;-48
2022/01/09 06:42:30;;;;;;;7.95;6.03;;;1.00;99.90;;;;;;5002141;28;20116;-46
2022/01/09 06:44:56;;;;;;;5.28;4.78;;;0.90;99.90;;;;;;5020365;28;20104;-47
2022/01/09 06:47:21;;;;;;;9.80;5.40;;;0.90;99.90;;;;;;5020189;28;20034;-46
2022/01/09 06:49:48;;;;;;;6.45;5.55;;;0.90;99.90;;;;;;5020387;28;20590;-48
2022/01/09 06:52:13;;;;;;;8.20;6.00;;;0.90;99.90;;;;;;5021134;28;20044;-51
2022/01/09 06:54:39;;;;;;;5.80;5.20;;;0.90;99.90;;;;;;5020113;28;20029;-50
2022/01/09 06:57:05;;;;;;;7.95;5.95;;;0.90;99.90;;;;;;5020382;28;20026;-46
2022/01/09 06:59:30;;;;;;;7.30;5.60;;;0.90;99.90;;;;;;5019864;28;20120;-46
2022/01/09 07:01:56;;;;;;;6.32;5.72;;;0.90;99.90;;;;;;5020417;28;20037;-49
2022/01/09 07:04:22;;;;;;;9.80;6.40;;;0.90;99.90;;;;;;5002219;28;20029;-47
2022/01/09 07:06:48;;;;;;;7.38;6.20;;;1.00;99.90;;;;;;5019958;28;20033;-50
2022/01/09 07:09:14;;;;;;;7.07;5.72;;;1.00;99.90;;;;;;5020196;28;20398;-50
2022/01/09 07:11:40;;;;;;;7.53;6.35;;;1.00;99.90;;;;;;5019406;28;20037;-47
2022/01/09 07:14:05;;;;;;;8.25;6.60;;;1.00;99.90;;;;;;5019627;28;20034;-46
2022/01/09 07:16:31;;;;;;;7.22;6.30;;;0.90;99.90;;;;;;5002086;28;20286;-51
2022/01/09 07:18:57;;;;;;;7.57;6.32;;;1.00;99.90;;;;;;5020369;28;20018;-46
2022/01/09 07:21:23;;;;;;;7.07;6.38;;;0.90;99.90;;;;;;5019501;28;20049;-48
2022/01/09 07:23:48;;;;;;;7.47;5.97;;;0.90;99.90;;;;;;5019745;28;20021;-51
2022/01/09 07:26:14;;;;;;;9.35;6.72;;;0.90;99.90;;;;;;5002105;28;20550;-50
2022/01/09 07:28:39;;;;;;;6.70;6.00;;;0.90;99.90;;;;;;5019187;28;20033;-47
2022/01/09 07:31:05;;;;;;;8.32;6.88;;;0.90;99.90;;;;;;5019624;28;20041;-51
2022/01/09 07:33:31;;;;;;;8.48;6.88;;;0.90;99.90;;;;;;5018739;28;20056;-46
2022/01/09 07:35:57;;;;;;;9.32;6.78;;;0.90;99.90;;;;;;5019316;28;20026;-47
2022/01/09 07:38:22;;;;;;;11.88;6.70;;;0.90;99.90;;;;;;5018944;28;20045;-50
2022/01/09 07:40:49;;;;;;;9.45;6.93;;;0.90;99.90;;;;;;5019080;28;20519;-47
2022/01/09 07:43:15;;;;;;;9.82;6.88;;;0.90;99.90;;;;;;5018953;28;20057;-46
2022/01/09 07:45:41;;;;;;;9.70;7.47;;;0.90;99.90;;;;;;5020488;28;20030;-46
2022/01/09 07:48:07;;;;;;;9.95;6.43;;;0.90;99.90;;;;;;5019007;28;20547;-48
2022/01/09 07:50:33;;;;;;;8.35;7.03;;;0.90;99.90;;;;;;5019323;28;20091;-50
2022/01/09 07:52:59;;;;;;;10.23;7.57;;;0.90;99.90;;;;;;5019298;28;20404;-48
2022/01/09 07:55:25;;;;;;;8.85;7.60;;;0.90;99.90;;;;;;5017273;28;20403;-49
2022/01/09 07:57:51;;;;;;;8.85;7.35;;;0.90;99.90;;;;;;5018895;28;20030;-49
2022/01/09 08:00:19;;;;;;;9.82;7.07;;;1.00;99.90;;;;;;5018397;28;20030;-51
2022/01/09 08:02:45;;;;;;;10.38;8.25;;;1.00;99.90;;;;;;5019350;28;20497;-46
2022/01/09 08:05:12;;;;;;;9.05;7.22;;;1.00;99.90;;;;;;5017836;28;20175;-50
2022/01/09 08:07:38;;;;;;;8.88;7.05;;;1.00;99.90;;;;;;5018357;28;20026;-46
2022/01/09 08:10:05;;;;;;;9.13;7.82;;;1.00;99.90;;;;;;5018396;28;20021;-46
2022/01/09 08:12:31;;;;;;;12.77;8.80;;;1.00;99.90;;;;;;5017398;28;20110;-48
2022/01/09 08:14:56;;;;;;;12.45;8.10;;;1.00;99.90;;;;;;5015665;28;20120;-51
2022/01/09 08:17:22;;;;;;;8.32;6.82;;;1.00;99.90;;;;;;5017872;28;20029;-47
2022/01/09 08:19:48;;;;;;;9.82;7.50;;;1.00;99.90;;;;;;5017751;28;20071;-46
2022/01/09 08:22:14;;;;;;;8.20;6.95;;;1.00;99.90;;;;;;5018597;28;20395;-46
2022/01/09 08:24:39;;;;;;;10.48;7.93;;;1.10;99.90;;;;;;5018250;28;20025;-50
2022/01/09 08:27:06;;;;;;;9.68;7.63;;;1.10;99.90;;;;;;5018412;28;20029;-52
2022/01/09 08:29:32;;;;;;;8.43;7.38;;;1.10;99.90;;;;;;5017505;28;20034;-52
2022/01/09 08:31:58;;;;;;;9.75;8.43;;;1.10;99.90;;;;;;5017352;28;20422;-50
2022/01/09 08:34:23;;;;;;;10.70;8.52;;;1.20;99.90;;;;;;5018736;28;20029;-48
2022/01/09 08:36:49;;;;;;;9.35;7.63;;;1.20;99.90;;;;;;5018082;28;20091;-51
2022/01/09 08:39:15;;;;;;;11.38;8.23;;;1.20;99.90;;;;;;5017151;28;20096;-50
2022/01/09 08:41:40;;;;;;;10.13;8.20;;;1.20;99.90;;;;;;5017701;28;20493;-51
2022/01/09 08:44:07;;;;;;;10.23;8.20;;;1.20;99.90;;;;;;5018785;28;20454;-50
2022/01/09 08:46:34;;;;;;;10.10;8.25;;;1.30;99.90;;;;;;5018534;28;20037;-52
2022/01/09 08:49:01;;;;;;;12.73;8.27;;;1.30;99.90;;;;;;5017378;28;20088;-48
2022/01/09 08:51:28;;;;;;;10.13;8.35;;;1.30;99.90;;;;;;5017900;28;20037;-53
2022/01/09 08:53:54;;;;;;;11.18;8.05;;;1.30;99.90;;;;;;5018211;28;20394;-48
2022/01/09 08:56:21;;;;;;;9.60;8.25;;;1.30;99.90;;;;;;5018209;28;20044;-50
2022/01/09 08:58:47;;;;;;;9.30;8.20;;;1.30;99.90;;;;;;5015052;28;20037;-50
2022/01/09 09:01:13;;;;;;;9.05;7.57;;;1.40;99.90;;;;;;5017457;28;20030;-50
2022/01/09 09:03:41;;;;;;;11.55;9.07;;;1.30;99.90;;;;;;5018266;28;20036;-46
2022/01/09 09:06:15;;;;;;;10.20;7.90;;;1.40;99.90;;;;;;5018580;28;20029;-49
2022/01/09 09:08:42;;;;;;;12.85;8.45;;;1.40;99.90;;;;;;5017153;28;20025;-47
2022/01/09 09:11:09;;;;;;;10.32;8.15;;;1.40;99.90;;;;;;5017638;28;20029;-46
2022/01/09 09:13:35;;;;;;;8.45;7.15;;;1.40;99.90;;;;;;5017670;28;20472;-49
2022/01/09 09:16:01;;;;;;;10.35;7.75;;;1.40;99.90;;;;;;5017810;28;20538;-47
2022/01/09 09:18:27;;;;;;;9.77;7.70;;;1.40;99.90;;;;;;5017841;28;20037;-51
2022/01/09 09:20:53;;;;;;;10.45;8.02;;;1.40;99.90;;;;;;5018460;28;20394;-47
2022/01/09 09:23:20;;;;;;;9.60;7.60;;;1.50;99.90;;;;;;5017301;28;20025;-47
2022/01/09 09:25:47;;;;;;;11.07;8.27;;;1.50;99.90;;;;;;5017760;28;20037;-52
2022/01/09 09:28:12;;;;;;;10.73;8.23;;;1.50;99.90;;;;;;5017706;28;20033;-48
2022/01/09 09:30:38;;;;;;;10.45;8.32;;;1.50;99.90;;;;;;5018516;28;20029;-48
2022/01/09 09:33:05;;;;;;;9.18;7.68;;;1.60;99.90;;;;;;5017943;28;20060;-49
2022/01/09 09:35:31;;;;;;;10.70;8.50;;;1.60;99.90;;;;;;5017917;28;20061;-46
2022/01/09 09:37:57;;;;;;;11.32;8.82;;;1.60;99.90;;;;;;5017377;28;20037;-50
2022/01/09 09:40:24;;;;;;;10.57;8.23;;;1.60;99.90;;;;;;5018632;28;20029;-48
2022/01/09 09:42:50;;;;;;;9.63;8.50;;;1.60;99.90;;;;;;5017299;28;20025;-52
2022/01/09 09:45:16;;;;;;;11.15;8.88;;;1.70;99.90;;;;;;5017182;28;20083;-50
2022/01/09 09:47:42;;;;;;;11.77;9.13;;;1.70;99.90;;;;;;5015885;28;20037;-49
2022/01/09 09:50:11;;;;;;;12.38;9.50;;;1.70;99.90;;;;;;5016668;28;20117;-46
2022/01/09 09:52:37;;;;;;;12.68;9.23;;;1.70;99.90;;;;;;5016385;28;20033;-50
2022/01/09 09:55:03;;;;;;;12.32;8.98;;;1.80;99.90;;;;;;4999180;28;20033;-49
2022/01/09 09:57:28;;;;;;;9.60;8.05;;;1.80;99.90;;;;;;5016992;28;20116;-57
2022/01/09 10:00:04;;;;;;;9.63;8.35;;;1.80;99.90;;;;;;5016644;28;20480;-50
2022/01/09 10:02:46;;;;;;;10.35;8.93;;;1.80;99.90;;;;;;5016862;28;20480;-50
2022/01/09 10:05:15;;;;;;;12.93;9.20;;;1.90;99.90;;;;;;5017123;28;20053;-47
2022/01/09 10:07:40;;;;;;;13.00;9.50;;;1.90;99.90;;;;;;5016304;28;20458;-46
2022/01/09 10:10:10;;;;;;;13.73;8.90;;;1.90;99.90;;;;;;5015896;28;20058;-47
2022/01/09 10:12:36;;;;;;;12.95;9.38;;;1.90;99.90;;;;;;5016853;28;20100;-48
2022/01/09 10:15:10;;;;;;;12.30;9.63;;;1.90;99.90;;;;;;5017558;28;20441;-47
2022/01/09 10:17:42;;;;;;;12.95;9.38;;;2.00;99.90;;;;;;5016423;28;20057;-47
2022/01/09 10:20:11;;;;;;;11.75;9.38;;;2.00;99.90;;;;;;5020076;28;20014;-47
2022/01/09 10:22:48;;;;;;;13.38;9.75;;;2.00;99.90;;;;;;5021593;28;20022;-47
2022/01/09 10:25:19;;;;;;;15.57;9.13;;;2.10;99.90;;;;;;5021552;28;20037;-49
2022/01/09 10:27:46;;;;;;;10.48;8.77;;;2.10;99.90;;;;;;5020636;28;20010;-46
2022/01/09 10:30:13;;;;;;;11.25;8.85;;;2.00;99.90;;;;;;5020897;28;20175;-50
2022/01/09 10:32:39;;;;;;;10.77;9.57;;;2.00;99.90;;;;;;5021452;28;20543;-46
2022/01/09 10:35:16;;;;;;;12.02;9.85;;;2.10;99.90;;;;;;5020941;28;20030;-52
2022/01/09 10:37:47;;;;;;;11.38;10.10;;;2.10;99.90;;;;;;5020607;28;20446;-51
2022/01/09 10:40:22;;;;;;;12.70;9.60;;;2.10;99.90;;;;;;5019615;28;20084;-51
2022/01/09 10:43:06;;;;;;;9.65;8.23;;;2.10;99.90;;;;;;5020770;28;20067;-52
2022/01/09 10:45:32;;;;;;;9.57;8.18;;;2.10;99.90;;;;;;5020386;28;20034;-54
2022/01/09 10:48:07;;;;;;;9.50;8.50;;;2.10;99.90;;;;;;5020129;28;20021;-50
2022/01/09 10:50:36;;;;;;;9.23;7.97;;;2.10;99.90;;;;;;5002821;28;20026;-50
2022/01/09 10:53:22;;;;;;;8.05;7.25;;;2.10;99.90;;;;;;5019307;28;20403;-50
2022/01/09 10:56:02;;;;;;;9.13;7.07;;;2.10;99.90;;;;;;5019778;28;20029;-49
2022/01/09 10:58:29;;;;;;;7.80;6.63;;;2.10;99.90;;;;;;5019061;28;20537;-49
2022/01/09 11:01:11;;;;;;;9.75;7.82;;;2.10;99.90;;;;;;5020438;28;20022;-54
2022/01/09 11:03:38;;;;;;;8.25;7.28;;;2.10;99.90;;;;;;5018549;28;20018;-52
2022/01/09 11:06:04;;;;;;;9.32;7.78;;;2.10;99.90;;;;;;5019681;28;20033;-48
2022/01/09 11:08:30;;;;;;;8.02;7.05;;;2.10;99.90;;;;;;5019251;28;20025;-46
2022/01/09 11:10:57;;;;;;;8.43;6.82;;;2.20;99.90;;;;;;5020882;28;20391;-51
2022/01/09 11:13:25;;;;;;;8.40;7.05;;;2.10;99.90;;;;;;5020128;28;20026;-51
2022/01/09 11:18:37;;;;;;;8.55;7.30;;;2.20;99.90;;;;;;5021044;28;20576;-50
2022/01/09 11:21:03;;;;;;;12.60;7.75;;;2.20;99.90;;;;;;5018737;28;20029;-46
2022/01/09 11:23:49;;;;;;;7.72;6.95;;;2.20;99.90;;;;;;5019947;28;20025;-48
2022/01/09 11:26:16;;;;;;;8.93;6.68;;;2.20;99.90;;;;;;5017936;28;20026;-47
2022/01/09 11:28:45;;;;;;;7.50;6.50;;;2.30;99.90;;;;;;5020222;28;20414;-46
2022/01/09 11:31:43;;;;;;;8.25;6.57;;;2.20;99.90;;;;;;5017958;28;20033;-46
2022/01/09 11:34:17;;;;;;;7.90;6.05;;;2.20;99.90;;;;;;5020148;28;20024;-49
2022/01/09 11:37:41;;;;;;;8.98;5.57;;;2.20;99.90;;;;;;5019032;28;20028;-48
2022/01/09 11:40:27;;;;;;;5.90;5.30;;;2.20;99.90;;;;;;4921544;29;20042;-49
2022/01/09 11:43:06;;;;;;;6.63;5.57;;;2.20;99.90;;;;;;5012340;28;20045;-47
2022/01/09 11:45:46;;;;;;;7.28;6.38;;;2.30;99.90;;;;;;5018227;28;20038;-51
2022/01/09 11:48:14;;;;;;;7.57;6.20;;;2.30;99.90;;;;;;5018278;28;20060;-51
2022/01/09 11:51:05;;;;;;;7.10;5.93;;;2.30;99.90;;;;;;5019189;28;20025;-50
2022/01/09 11:54:08;;;;;;;7.28;6.57;;;2.30;99.90;;;;;;5018697;28;20483;-47
2022/01/09 11:57:05;;;;;;;7.45;6.60;;;2.30;99.90;;;;;;5018802;28;20018;-50
2022/01/09 11:59:37;;;;;;;6.65;6.05;;;2.30;99.90;;;;;;5018424;28;20522;-50
2022/01/09 12:02:12;;;;;;;6.35;5.60;;;2.40;99.90;;;;;;5019373;28;20062;-50
2022/01/09 12:04:40;;;;;;;7.93;6.95;;;2.40;99.90;;;;;;5016805;28;20034;-50
2022/01/09 12:07:42;;;;;;;8.88;6.65;;;2.40;99.90;;;;;;5019504;28;20455;-48
2022/01/09 12:10:28;;;;;;;7.05;5.80;;;2.40;99.90;;;;;;4974377;28;20042;-46
2022/01/09 12:12:55;;;;;;;7.63;6.80;;;2.40;99.90;;;;;;5019966;28;20041;-46
2022/01/09 12:15:35;;;;;;;7.32;6.55;;;2.40;99.90;;;;;;5018910;28;20026;-50
2022/01/09 12:18:03;;;;;;;8.13;7.10;;;2.40;99.90;;;;;;5019359;28;20109;-48
2022/01/09 12:20:37;;;;;;;7.32;6.63;;;2.40;99.90;;;;;;5018331;28;20376;-49
2022/01/09 12:23:04;;;;;;;8.10;7.22;;;2.40;99.90;;;;;;5017951;28;20484;-46
2022/01/09 12:25:36;;;;;;;12.13;9.57;;;2.40;99.90;;;;;;5018589;28;20034;-47
2022/01/09 12:28:14;;;;;;;10.55;8.88;;;2.40;99.90;;;;;;5018181;28;20041;-48
2022/01/09 12:30:43;;;;;;;10.45;9.35;;;2.50;99.90;;;;;;5019333;28;20553;-46
2022/01/09 12:33:11;;;;;;;11.10;9.90;;;2.50;99.90;;;;;;5017591;28;20032;-49
2022/01/09 12:35:39;;;;;;;8.60;7.70;;;2.50;99.90;;;;;;5017371;28;20025;-46
2022/01/09 12:38:05;;;;;;;9.57;7.00;;;2.50;99.90;;;;;;5018013;28;20014;-46
2022/01/09 12:40:35;;;;;;;16.92;14.48;;;2.50;99.90;;;;;;5018140;28;20084;-46
2022/01/09 12:43:02;;;;;;;21.08;15.35;;;2.50;99.90;;;;;;5018214;28;20021;-47
2022/01/09 12:45:31;;;;;;;24.73;18.38;;;2.50;99.90;;;;;;5017173;28;20030;-48
2022/01/09 12:47:58;;;;;;;21.40;15.55;;;2.50;99.90;;;;;;5018059;28;20021;-46
2022/01/09 12:50:33;;;;;;;18.85;11.43;;;2.50;99.90;;;;;;5017356;28;20071;-46
2022/01/09 12:53:17;;;;;;;15.25;13.07;;;2.50;99.90;;;;;;5018592;28;20017;-49
2022/01/09 12:56:32;;;;;;;14.32;11.18;;;2.50;99.90;;;;;;5017784;28;20502;-52
2022/01/09 12:59:00;;;;;;;13.18;10.18;;;2.60;99.90;;;;;;5011847;28;20037;-50
2022/01/09 13:01:32;;;;;;;10.73;9.13;;;2.60;99.90;;;;;;5018228;28;20029;-51
2022/01/09 13:04:00;;;;;;;12.82;10.50;;;2.60;99.90;;;;;;5018632;28;20055;-51
2022/01/09 13:06:26;;;;;;;10.68;9.25;;;2.60;99.90;;;;;;5017978;28;20117;-49
2022/01/09 13:08:57;;;;;;;12.48;10.43;;;2.70;99.90;;;;;;5017888;28;20037;-50